Time;durP1;ratioP1;P1;durP2;ratioP2;P2;SDS_P1;SDS_P2;PMS_P1;PMS_P2;Temp;Humidity;BMP_temperature;BMP_pressure;BME280_temperature;BME280_humidity;BME280_pressure;Samples;Min_cycle;Max_cycle;Signal;HPM_P1;HPM_P2
2023/06/16 00:01:53;;;;;;;9.13;5.63;;;;;;;;;;6304486;22;20279;-90
2023/06/16 00:05:01;;;;;;;10.45;5.90;;;;;;;;;;6304952;22;20153;-90
2023/06/16 00:08:09;;;;;;;9.43;5.32;;;;;;;;;;6304145;22;20169;-91
2023/06/16 00:11:14;;;;;;;10.52;5.68;;;;;;;;;;6303951;22;20562;-91
2023/06/16 00:14:20;;;;;;;14.15;6.20;;;;;;;;;;6304972;22;20157;-90
2023/06/16 00:17:27;;;;;;;8.95;5.53;;;;;;;;;;6304564;22;20153;-91
2023/06/16 00:20:35;;;;;;;14.45;6.68;;;;;;;;;;6305651;22;20153;-89
2023/06/16 00:23:40;;;;;;;12.45;6.28;;;;;;;;;;6303294;22;20284;-90
2023/06/16 00:26:45;;;;;;;14.38;6.95;;;;;;;;;;6304177;22;20161;-91
2023/06/16 00:29:50;;;;;;;10.45;6.30;;;;;;;;;;6303553;22;20612;-90
2023/06/16 00:32:56;;;;;;;9.63;5.78;;;;;;;;;;6302339;22;20145;-90
2023/06/16 00:36:01;;;;;;;11.13;5.55;;;;;;;;;;6302097;22;20181;-90
2023/06/16 00:39:07;;;;;;;10.50;5.68;;;;;;;;;;6301898;22;20158;-89
2023/06/16 00:42:12;;;;;;;8.85;5.60;;;;;;;;;;6302506;22;20172;-90
2023/06/16 00:45:18;;;;;;;10.88;5.82;;;;;;;;;;6301065;22;20675;-90
2023/06/16 00:48:27;;;;;;;11.00;5.68;;;;;;;;;;6303154;22;20149;-90
2023/06/16 00:51:40;;;;;;;10.45;6.50;;;;;;;;;;6302428;22;20203;-91
2023/06/16 00:54:45;;;;;;;9.82;6.00;;;;;;;;;;6302821;22;20165;-90
2023/06/16 00:57:52;;;;;;;7.93;5.32;;;;;;;;;;6301887;22;20164;-91
2023/06/16 01:01:03;;;;;;;9.98;5.95;;;;;;;;;;6302555;22;20218;-90
2023/06/16 01:04:12;;;;;;;11.45;5.93;;;;;;;;;;6303132;22;20153;-90
2023/06/16 01:07:20;;;;;;;9.73;5.80;;;;;;;;;;6304672;22;20200;-91
2023/06/16 01:10:28;;;;;;;8.10;5.28;;;;;;;;;;6303059;22;20169;-91
2023/06/16 01:13:39;;;;;;;10.40;5.85;;;;;;;;;;6320963;22;20669;-90
2023/06/16 01:16:46;;;;;;;11.13;6.45;;;;;;;;;;6301711;22;20220;-91
2023/06/16 01:20:17;;;;;;;10.13;6.25;;;;;;;;;;6301327;22;20216;-92
2023/06/16 01:23:33;;;;;;;9.65;5.55;;;;;;;;;;6301566;22;20188;-91
2023/06/16 01:26:41;;;;;;;10.98;6.22;;;;;;;;;;6302847;22;20219;-91
2023/06/16 01:29:46;;;;;;;9.75;5.82;;;;;;;;;;6302900;22;20181;-91
2023/06/16 01:32:54;;;;;;;10.68;6.32;;;;;;;;;;6300016;22;20172;-91
2023/06/16 01:35:59;;;;;;;11.88;6.28;;;;;;;;;;6300413;22;20237;-92
2023/06/16 01:39:05;;;;;;;11.85;6.72;;;;;;;;;;6299131;22;20228;-90
2023/06/16 01:42:13;;;;;;;11.48;6.55;;;;;;;;;;6301155;22;20233;-91
2023/06/16 01:45:19;;;;;;;10.15;6.60;;;;;;;;;;6300948;22;20164;-92
2023/06/16 01:48:25;;;;;;;12.20;6.72;;;;;;;;;;6299527;22;20166;-90
2023/06/16 01:51:30;;;;;;;14.27;7.22;;;;;;;;;;6300224;22;20213;-91
2023/06/16 01:54:35;;;;;;;11.68;6.72;;;;;;;;;;6299332;22;20168;-91
2023/06/16 01:58:05;;;;;;;14.00;6.95;;;;;;;;;;6298575;22;20156;-90
2023/06/16 02:01:15;;;;;;;13.68;6.47;;;;;;;;;;6299582;22;20168;-90
2023/06/16 02:04:22;;;;;;;11.02;6.70;;;;;;;;;;6299699;22;20234;-89
2023/06/16 02:07:30;;;;;;;12.70;6.45;;;;;;;;;;6301143;22;20272;-90
2023/06/16 02:10:35;;;;;;;9.98;6.40;;;;;;;;;;6302369;22;20161;-91
2023/06/16 02:13:41;;;;;;;11.35;6.45;;;;;;;;;;6304469;22;20168;-90
2023/06/16 02:16:50;;;;;;;10.88;6.18;;;;;;;;;;6305345;22;20217;-91
2023/06/16 02:19:59;;;;;;;12.02;6.60;;;;;;;;;;6302775;22;20170;-91
2023/06/16 02:23:05;;;;;;;10.73;6.60;;;;;;;;;;6302164;22;20151;-92
2023/06/16 02:26:10;;;;;;;12.60;6.07;;;;;;;;;;6285447;22;20193;-91
2023/06/16 02:29:16;;;;;;;10.48;6.38;;;;;;;;;;6302922;22;20164;-91
2023/06/16 02:32:22;;;;;;;12.05;7.10;;;;;;;;;;6302448;22;20248;-90
2023/06/16 02:35:28;;;;;;;11.45;6.70;;;;;;;;;;6301909;22;20183;-91
2023/06/16 02:38:33;;;;;;;11.57;6.22;;;;;;;;;;6300803;22;20621;-92
2023/06/16 02:41:37;;;;;;;13.50;6.50;;;;;;;;;;6301150;22;20620;-91
2023/06/16 02:44:43;;;;;;;12.07;6.10;;;;;;;;;;6302581;22;20170;-91
2023/06/16 02:47:49;;;;;;;11.48;6.47;;;;;;;;;;6302721;22;20647;-90
2023/06/16 02:50:55;;;;;;;10.60;6.78;;;;;;;;;;6303073;22;20169;-91
2023/06/16 02:54:02;;;;;;;14.65;6.15;;;;;;;;;;6305030;22;20165;-90
2023/06/16 02:57:08;;;;;;;15.43;6.55;;;;;;;;;;6304152;22;20157;-90
2023/06/16 03:00:23;;;;;;;10.02;6.57;;;;;;;;;;6306121;22;20216;-89
2023/06/16 03:03:48;;;;;;;9.85;6.20;;;;;;;;;;6303963;22;20613;-91
2023/06/16 03:07:31;;;;;;;9.13;5.70;;;;;;;;;;6318024;22;20667;-89
2023/06/16 03:10:37;;;;;;;12.55;6.65;;;;;;;;;;6305239;22;20161;-90
2023/06/16 03:13:49;;;;;;;12.82;6.00;;;;;;;;;;6303913;22;20608;-90
2023/06/16 03:16:57;;;;;;;10.80;5.97;;;;;;;;;;6300302;22;20168;-90
2023/06/16 03:20:07;;;;;;;9.10;5.40;;;;;;;;;;6299832;22;20177;-90
2023/06/16 03:23:34;;;;;;;15.02;5.93;;;;;;;;;;6300426;22;20149;-89
2023/06/16 03:26:39;;;;;;;9.63;5.75;;;;;;;;;;6300974;22;20212;-90
2023/06/16 03:29:55;;;;;;;13.25;5.55;;;;;;;;;;6300164;22;20165;-90
2023/06/16 03:33:01;;;;;;;13.30;5.88;;;;;;;;;;6301389;22;20149;-90
2023/06/16 03:36:09;;;;;;;10.73;6.53;;;;;;;;;;6299096;22;20169;-90
2023/06/16 03:39:21;;;;;;;9.90;6.10;;;;;;;;;;6302932;22;20200;-90
2023/06/16 03:42:26;;;;;;;9.35;5.40;;;;;;;;;;6305251;22;20162;-89
2023/06/16 03:45:33;;;;;;;9.02;5.60;;;;;;;;;;6303649;22;20169;-90
2023/06/16 03:48:38;;;;;;;8.35;5.60;;;;;;;;;;6306072;22;20172;-90
2023/06/16 03:51:46;;;;;;;11.40;5.97;;;;;;;;;;6306113;22;20165;-88
2023/06/16 03:54:52;;;;;;;12.60;6.72;;;;;;;;;;6306955;22;20163;-90
2023/06/16 03:57:58;;;;;;;13.32;6.55;;;;;;;;;;6304413;22;20168;-90
2023/06/16 04:01:03;;;;;;;12.52;6.00;;;;;;;;;;6302809;22;20169;-91
2023/06/16 04:04:10;;;;;;;13.55;6.50;;;;;;;;;;6304104;22;20194;-90
2023/06/16 04:07:18;;;;;;;12.73;6.63;;;;;;;;;;6302280;22;20192;-90
2023/06/16 04:10:25;;;;;;;11.32;6.57;;;;;;;;;;6302772;22;20185;-90
2023/06/16 04:13:31;;;;;;;9.90;5.82;;;;;;;;;;6305095;22;20180;-91
2023/06/16 04:16:42;;;;;;;12.80;6.03;;;;;;;;;;6304250;22;20181;-91
2023/06/16 04:19:52;;;;;;;11.02;6.20;;;;;;;;;;6303722;22;20184;-90
2023/06/16 04:22:59;;;;;;;15.02;6.40;;;;;;;;;;6302741;22;20169;-90
2023/06/16 04:26:06;;;;;;;13.43;6.72;;;;;;;;;;6305767;22;20165;-91
2023/06/16 04:29:14;;;;;;;10.88;6.07;;;;;;;;;;6306561;22;20227;-90
2023/06/16 04:32:21;;;;;;;10.10;6.20;;;;;;;;;;6302841;22;20165;-91
2023/06/16 04:35:29;;;;;;;12.48;6.40;;;;;;;;;;6302653;22;20169;-90
2023/06/16 04:38:38;;;;;;;15.45;6.60;;;;;;;;;;6301119;22;20180;-91
2023/06/16 04:41:44;;;;;;;14.60;6.97;;;;;;;;;;6304575;22;20173;-91
2023/06/16 04:44:50;;;;;;;11.77;6.65;;;;;;;;;;6307226;22;20156;-90
2023/06/16 04:47:56;;;;;;;10.07;6.32;;;;;;;;;;6305550;22;20279;-90
2023/06/16 04:51:02;;;;;;;11.73;6.38;;;;;;;;;;6305842;22;20160;-91
2023/06/16 04:54:08;;;;;;;10.07;5.75;;;;;;;;;;6304477;22;20160;-91
2023/06/16 04:57:20;;;;;;;9.00;5.47;;;;;;;;;;6304896;22;20152;-88
2023/06/16 05:00:28;;;;;;;14.93;7.70;;;;;;;;;;6306528;22;20215;-91
2023/06/16 05:03:33;;;;;;;12.48;7.75;;;;;;;;;;6306555;22;20169;-90
2023/06/16 05:06:38;;;;;;;12.05;7.25;;;;;;;;;;6307321;22;20176;-91
2023/06/16 05:09:45;;;;;;;13.43;7.65;;;;;;;;;;6305721;22;20168;-91
2023/06/16 05:12:51;;;;;;;13.13;8.10;;;;;;;;;;6304900;22;20218;-90
2023/06/16 05:15:57;;;;;;;11.95;7.68;;;;;;;;;;6305401;22;20227;-90
2023/06/16 05:22:36;;;;;;;12.18;7.13;;;;;;;;;;6305798;22;20212;-90
2023/06/16 05:25:45;;;;;;;14.98;6.90;;;;;;;;;;6304619;22;20144;-89
2023/06/16 05:28:50;;;;;;;12.00;7.10;;;;;;;;;;6304071;22;20165;-91
2023/06/16 05:31:58;;;;;;;11.27;7.05;;;;;;;;;;6304878;22;20177;-91
2023/06/16 05:38:23;;;;;;;12.80;7.18;;;;;;;;;;6303917;22;20613;-88
2023/06/16 05:41:30;;;;;;;11.65;6.93;;;;;;;;;;6306564;22;20166;-89
2023/06/16 05:44:37;;;;;;;12.88;7.22;;;;;;;;;;6301902;22;20283;-89
2023/06/16 05:47:42;;;;;;;14.82;7.60;;;;;;;;;;6300240;22;20193;-89
2023/06/16 05:50:49;;;;;;;11.65;6.50;;;;;;;;;;6301846;22;20219;-90
2023/06/16 05:53:54;;;;;;;12.68;6.32;;;;;;;;;;6304387;22;20165;-91
2023/06/16 05:57:29;;;;;;;10.45;6.30;;;;;;;;;;6303151;22;20157;-90
2023/06/16 06:00:38;;;;;;;12.07;6.80;;;;;;;;;;6303205;22;20655;-89
2023/06/16 06:03:51;;;;;;;11.68;6.35;;;;;;;;;;6306568;22;20225;-91
2023/06/16 06:06:58;;;;;;;12.45;6.50;;;;;;;;;;6305513;22;20189;-91
2023/06/16 06:10:04;;;;;;;15.63;6.63;;;;;;;;;;6306175;22;20149;-92
2023/06/16 06:13:11;;;;;;;11.95;5.97;;;;;;;;;;6306874;22;20169;-89
2023/06/16 06:16:23;;;;;;;14.35;6.20;;;;;;;;;;6305806;22;20173;-89
2023/06/16 06:19:31;;;;;;;9.65;5.32;;;;;;;;;;6304007;22;20208;-90
2023/06/16 06:22:40;;;;;;;9.32;5.07;;;;;;;;;;6304625;22;20188;-89
2023/06/16 06:25:47;;;;;;;9.75;5.88;;;;;;;;;;6309348;22;20157;-90
2023/06/16 06:28:57;;;;;;;11.52;6.00;;;;;;;;;;6309778;22;20246;-91
2023/06/16 06:32:06;;;;;;;9.73;6.20;;;;;;;;;;6309794;22;20215;-91
2023/06/16 06:35:12;;;;;;;11.55;5.85;;;;;;;;;;6311045;22;20249;-91
2023/06/16 06:38:19;;;;;;;8.10;5.65;;;;;;;;;;6308087;22;20501;-92
2023/06/16 06:41:27;;;;;;;11.82;5.63;;;;;;;;;;6309834;22;20149;-91
2023/06/16 06:44:38;;;;;;;12.63;5.70;;;;;;;;;;6309717;22;20169;-91
2023/06/16 06:47:48;;;;;;;12.20;5.43;;;;;;;;;;6307341;22;20196;-91
2023/06/16 06:50:54;;;;;;;7.55;4.95;;;;;;;;;;6309270;22;20169;-90
2023/06/16 06:53:59;;;;;;;7.15;4.75;;;;;;;;;;6306112;22;20173;-90
2023/06/16 06:57:12;;;;;;;10.40;5.40;;;;;;;;;;6307844;22;20173;-91
2023/06/16 07:00:18;;;;;;;9.82;5.60;;;;;;;;;;6309740;22;20165;-89
2023/06/16 07:03:26;;;;;;;8.65;4.93;;;;;;;;;;6310547;22;20174;-91
2023/06/16 07:06:32;;;;;;;7.05;4.25;;;;;;;;;;6309818;22;20165;-90
2023/06/16 07:09:38;;;;;;;7.00;4.97;;;;;;;;;;6308726;22;20172;-92
2023/06/16 07:12:43;;;;;;;10.30;4.45;;;;;;;;;;6308764;22;20214;-89
2023/06/16 07:15:48;;;;;;;8.50;4.63;;;;;;;;;;6306750;22;20161;-90
2023/06/16 07:19:01;;;;;;;9.73;4.22;;;;;;;;;;6305263;22;20170;-91
2023/06/16 07:22:06;;;;;;;6.53;4.07;;;;;;;;;;6304573;22;20236;-91
2023/06/16 07:25:12;;;;;;;7.15;4.32;;;;;;;;;;6306985;22;20194;-92
2023/06/16 07:28:18;;;;;;;7.03;3.88;;;;;;;;;;6305574;22;20200;-90
2023/06/16 07:34:45;;;;;;;5.82;4.03;;;;;;;;;;6306213;22;20176;-91
2023/06/16 07:37:50;;;;;;;7.90;4.70;;;;;;;;;;6305619;22;20219;-91
2023/06/16 07:40:55;;;;;;;7.72;4.10;;;;;;;;;;6307892;22;20145;-91
2023/06/16 07:44:01;;;;;;;10.07;3.85;;;;;;;;;;6305132;22;20169;-91
2023/06/16 07:47:07;;;;;;;8.95;3.92;;;;;;;;;;6307477;22;20169;-91
2023/06/16 07:50:26;;;;;;;6.82;4.10;;;;;;;;;;6308034;22;20168;-89
2023/06/16 07:53:31;;;;;;;5.80;3.72;;;;;;;;;;6306187;22;20204;-91
2023/06/16 07:56:40;;;;;;;11.20;3.80;;;;;;;;;;6307230;22;20152;-90
2023/06/16 07:59:46;;;;;;;6.88;3.85;;;;;;;;;;6308739;22;20173;-91
2023/06/16 08:42:22;;;;;;;8.27;3.80;;;;;;;;;;6264303;22;20217;-89
2023/06/16 08:45:38;;;;;;;5.50;3.38;;;;;;;;;;6307149;22;20168;-91
2023/06/16 08:48:44;;;;;;;6.53;3.88;;;;;;;;;;6303942;22;20156;-92
2023/06/16 08:51:50;;;;;;;7.20;3.78;;;;;;;;;;6301116;22;20242;-92
2023/06/16 08:54:58;;;;;;;7.75;3.78;;;;;;;;;;6302098;22;20168;-92
2023/06/16 08:58:08;;;;;;;7.63;3.83;;;;;;;;;;6303893;22;20218;-91
2023/06/16 09:01:14;;;;;;;5.22;3.25;;;;;;;;;;6301386;22;20500;-90
2023/06/16 09:04:20;;;;;;;11.02;4.05;;;;;;;;;;6303093;22;20168;-89
2023/06/16 09:07:27;;;;;;;8.15;3.00;;;;;;;;;;6303923;22;20169;-91
2023/06/16 09:10:32;;;;;;;6.10;3.60;;;;;;;;;;6304693;22;20861;-88
2023/06/16 09:13:43;;;;;;;7.38;3.28;;;;;;;;;;6307438;22;20213;-90
2023/06/16 09:16:56;;;;;;;8.73;3.30;;;;;;;;;;6302655;22;20165;-92
2023/06/16 09:20:16;;;;;;;8.50;3.75;;;;;;;;;;6305642;22;20164;-91
2023/06/16 09:23:28;;;;;;;7.45;3.55;;;;;;;;;;6304277;22;20239;-90
2023/06/16 09:26:37;;;;;;;4.55;2.90;;;;;;;;;;6306058;22;20180;-89
2023/06/16 09:29:45;;;;;;;8.73;3.58;;;;;;;;;;6305543;22;20164;-90
2023/06/16 09:32:53;;;;;;;6.72;3.08;;;;;;;;;;6308083;22;20169;-90
2023/06/16 09:35:59;;;;;;;6.15;3.60;;;;;;;;;;6306650;22;20233;-91
2023/06/16 09:39:05;;;;;;;7.55;3.55;;;;;;;;;;6306789;22;20316;-91
2023/06/16 09:42:23;;;;;;;6.00;3.25;;;;;;;;;;6304822;22;20187;-89
2023/06/16 09:45:31;;;;;;;13.23;3.30;;;;;;;;;;6303991;22;20149;-89
2023/06/16 09:48:45;;;;;;;10.75;3.22;;;;;;;;;;6305517;22;20162;-90
2023/06/16 09:51:52;;;;;;;11.23;3.53;;;;;;;;;;6310468;22;20169;-92
2023/06/16 09:55:00;;;;;;;5.38;3.60;;;;;;;;;;6305694;22;20161;-90
2023/06/16 10:02:35;;;;;;;6.43;3.50;;;;;;;;;;6328191;22;20153;-90
2023/06/16 16:40:27;;;;;;;6.38;3.70;;;;;;;;;;6236772;22;20230;-89
2023/06/16 16:43:32;;;;;;;7.00;3.80;;;;;;;;;;6306443;22;20233;-89
2023/06/16 16:46:37;;;;;;;7.60;3.45;;;;;;;;;;6307613;22;20180;-90
2023/06/16 16:49:42;;;;;;;7.65;3.70;;;;;;;;;;6304779;22;20190;-92
2023/06/16 16:52:48;;;;;;;10.35;3.83;;;;;;;;;;6305464;22;20275;-90
2023/06/16 16:56:04;;;;;;;8.52;4.00;;;;;;;;;;6307810;22;20216;-89
2023/06/16 16:59:10;;;;;;;8.23;3.75;;;;;;;;;;6306420;22;20518;-91
2023/06/16 17:02:15;;;;;;;10.82;4.30;;;;;;;;;;6305954;22;20220;-89
2023/06/16 17:05:21;;;;;;;12.15;3.70;;;;;;;;;;6306224;22;20165;-90
2023/06/16 17:08:26;;;;;;;8.55;3.58;;;;;;;;;;6305596;22;20231;-93
2023/06/16 17:11:33;;;;;;;8.75;3.92;;;;;;;;;;6305458;22;20244;-93
2023/06/16 17:14:38;;;;;;;10.05;3.95;;;;;;;;;;6304341;22;20160;-93
2023/06/16 17:18:23;;;;;;;9.75;4.38;;;;;;;;;;6306455;22;20212;-91
2023/06/16 17:21:28;;;;;;;6.95;3.92;;;;;;;;;;6302198;22;20156;-91
2023/06/16 17:24:33;;;;;;;12.65;4.20;;;;;;;;;;6303285;22;20149;-92
2023/06/16 17:27:40;;;;;;;9.48;3.63;;;;;;;;;;6303306;22;20161;-91
2023/06/16 17:30:46;;;;;;;7.38;4.03;;;;;;;;;;6304100;22;20209;-90
2023/06/16 17:33:51;;;;;;;7.80;3.70;;;;;;;;;;6304888;22;20181;-91
2023/06/16 17:40:17;;;;;;;9.10;4.10;;;;;;;;;;6305735;22;20173;-91
2023/06/16 17:43:23;;;;;;;9.80;4.32;;;;;;;;;;6304424;22;20161;-91
2023/06/16 17:46:28;;;;;;;10.02;3.80;;;;;;;;;;6305175;22;20160;-93
2023/06/16 17:49:33;;;;;;;8.27;3.95;;;;;;;;;;6305167;22;20168;-92
2023/06/16 17:52:39;;;;;;;7.63;4.20;;;;;;;;;;6303698;22;20169;-90
2023/06/16 18:00:01;;;;;;;7.40;3.80;;;;;;;;;;6323720;22;20208;-91
2023/06/16 18:03:06;;;;;;;10.18;3.92;;;;;;;;;;6303629;22;20676;-91
2023/06/16 18:06:12;;;;;;;7.53;3.92;;;;;;;;;;6307033;22;20157;-94
2023/06/16 18:09:17;;;;;;;9.65;4.57;;;;;;;;;;6305404;22;20164;-90
2023/06/16 18:12:22;;;;;;;11.80;5.00;;;;;;;;;;6304850;22;20165;-91
2023/06/16 18:15:28;;;;;;;9.20;5.53;;;;;;;;;;6303624;22;20238;-91
2023/06/16 18:22:57;;;;;;;11.02;5.30;;;;;;;;;;6325964;22;20180;-92
2023/06/16 18:26:03;;;;;;;9.48;4.30;;;;;;;;;;6307259;22;20620;-90
2023/06/16 18:29:08;;;;;;;8.13;4.22;;;;;;;;;;6305214;22;20173;-91
2023/06/16 18:32:15;;;;;;;6.95;3.83;;;;;;;;;;6307867;22;20153;-89
2023/06/16 18:35:21;;;;;;;7.25;3.70;;;;;;;;;;6306186;22;20165;-89
2023/06/16 18:38:26;;;;;;;10.10;4.50;;;;;;;;;;6306327;22;20506;-91
2023/06/16 18:41:31;;;;;;;10.60;4.22;;;;;;;;;;6305261;22;20185;-91
2023/06/16 18:44:36;;;;;;;6.05;3.90;;;;;;;;;;6306353;22;20148;-93
2023/06/16 18:47:44;;;;;;;10.52;4.45;;;;;;;;;;6307079;22;20169;-91
2023/06/16 18:50:50;;;;;;;9.80;4.55;;;;;;;;;;6306331;22;20168;-91
2023/06/16 18:53:55;;;;;;;8.18;4.30;;;;;;;;;;6305971;22;20162;-92
2023/06/16 18:57:03;;;;;;;14.48;4.93;;;;;;;;;;6304504;22;20157;-92
2023/06/16 19:04:36;;;;;;;7.40;4.13;;;;;;;;;;6324463;22;20157;-90
2023/06/16 19:07:43;;;;;;;10.88;4.65;;;;;;;;;;6304410;22;20232;-92
2023/06/16 19:10:48;;;;;;;11.65;5.30;;;;;;;;;;6305742;22;20169;-92
2023/06/16 19:13:54;;;;;;;7.50;4.30;;;;;;;;;;6306714;22;20161;-90
2023/06/16 19:16:59;;;;;;;5.63;3.45;;;;;;;;;;6306134;22;20165;-91
2023/06/16 19:20:47;;;;;;;9.07;4.55;;;;;;;;;;6304598;22;20275;-90
2023/06/16 19:23:54;;;;;;;13.07;5.40;;;;;;;;;;6305845;22;20244;-92
2023/06/16 19:26:59;;;;;;;11.85;5.22;;;;;;;;;;6303885;22;20239;-91
2023/06/16 19:30:04;;;;;;;12.70;4.70;;;;;;;;;;6305611;22;20173;-90
2023/06/16 19:33:10;;;;;;;10.60;5.05;;;;;;;;;;6304063;22;20612;-92
2023/06/16 19:36:15;;;;;;;9.55;5.78;;;;;;;;;;6303565;22;20193;-91
2023/06/16 19:39:22;;;;;;;12.88;7.18;;;;;;;;;;6303599;22;20184;-91
2023/06/16 19:42:27;;;;;;;15.63;7.20;;;;;;;;;;6305032;22;20168;-90
2023/06/16 19:45:33;;;;;;;14.48;6.25;;;;;;;;;;6303276;22;20246;-90
2023/06/16 19:48:38;;;;;;;9.32;5.90;;;;;;;;;;6303156;22;20670;-88
2023/06/16 19:51:44;;;;;;;12.98;6.22;;;;;;;;;;6302547;22;20169;-90
2023/06/16 19:54:52;;;;;;;15.80;6.07;;;;;;;;;;6305159;22;20228;-87
2023/06/16 19:58:03;;;;;;;14.27;5.05;;;;;;;;;;6304248;22;20153;-88
2023/06/16 20:01:08;;;;;;;8.52;4.90;;;;;;;;;;6300749;22;20168;-89
2023/06/16 20:04:13;;;;;;;13.27;5.15;;;;;;;;;;6300833;22;20165;-89
2023/06/16 20:07:20;;;;;;;9.85;5.30;;;;;;;;;;6300104;22;20880;-87
2023/06/16 20:10:27;;;;;;;16.10;8.05;;;;;;;;;;6302537;22;20237;-88
2023/06/16 20:13:32;;;;;;;8.57;5.35;;;;;;;;;;6320313;22;20188;-88
2023/06/16 20:16:37;;;;;;;11.50;6.07;;;;;;;;;;6300990;22;20501;-89
2023/06/16 20:19:44;;;;;;;19.88;6.95;;;;;;;;;;6300787;22;20180;-89
2023/06/16 20:22:49;;;;;;;20.38;8.07;;;;;;;;;;6300026;22;20173;-90
2023/06/16 20:25:56;;;;;;;19.20;7.43;;;;;;;;;;6300272;22;20231;-85
2023/06/16 20:29:05;;;;;;;12.55;6.32;;;;;;;;;;6302169;22;20161;-89
2023/06/16 20:32:10;;;;;;;17.92;8.20;;;;;;;;;;6303230;22;20161;-88
2023/06/16 20:35:17;;;;;;;12.15;5.82;;;;;;;;;;6301327;22;20272;-89
2023/06/16 20:38:22;;;;;;;11.50;6.10;;;;;;;;;;6301953;22;20211;-88
2023/06/16 20:41:33;;;;;;;13.10;6.53;;;;;;;;;;6300101;22;20188;-88
2023/06/16 20:44:38;;;;;;;11.48;5.80;;;;;;;;;;6299476;22;20168;-88
2023/06/16 20:47:45;;;;;;;9.88;5.63;;;;;;;;;;6300826;22;20176;-89
2023/06/16 20:50:50;;;;;;;10.60;6.10;;;;;;;;;;6300635;22;20240;-89
2023/06/16 20:53:55;;;;;;;11.05;5.60;;;;;;;;;;6301486;22;20311;-88
2023/06/16 20:57:27;;;;;;;14.60;5.63;;;;;;;;;;6299671;22;20177;-87
2023/06/16 21:00:39;;;;;;;10.52;5.43;;;;;;;;;;6298497;22;20282;-88
2023/06/16 21:03:44;;;;;;;12.70;6.25;;;;;;;;;;6299678;22;20507;-87
2023/06/16 21:06:51;;;;;;;8.32;5.35;;;;;;;;;;6299010;22;20161;-87
2023/06/16 21:10:02;;;;;;;9.30;5.43;;;;;;;;;;6298049;22;20180;-86
2023/06/16 21:13:09;;;;;;;11.20;5.97;;;;;;;;;;6299433;22;20161;-89
2023/06/16 21:16:15;;;;;;;9.88;5.90;;;;;;;;;;6299621;22;20177;-86
2023/06/16 21:19:21;;;;;;;11.90;6.00;;;;;;;;;;6298930;22;20193;-87
2023/06/16 21:22:26;;;;;;;12.35;5.72;;;;;;;;;;6299624;22;20181;-88
2023/06/16 21:25:31;;;;;;;14.32;6.30;;;;;;;;;;6298766;22;20168;-85
2023/06/16 21:28:36;;;;;;;9.57;5.75;;;;;;;;;;6300852;22;20184;-88
2023/06/16 21:31:43;;;;;;;10.65;5.82;;;;;;;;;;6300936;22;20279;-89
2023/06/16 21:34:50;;;;;;;10.80;5.97;;;;;;;;;;6299585;22;20173;-87
2023/06/16 21:38:01;;;;;;;11.43;6.05;;;;;;;;;;6299204;22;20165;-89
2023/06/16 21:41:06;;;;;;;14.63;6.28;;;;;;;;;;6299949;22;20204;-85
2023/06/16 21:44:11;;;;;;;11.50;7.03;;;;;;;;;;6299766;22;20255;-86
2023/06/16 21:47:17;;;;;;;12.02;6.43;;;;;;;;;;6299365;22;20233;-87
2023/06/16 21:50:22;;;;;;;12.40;6.65;;;;;;;;;;6298076;22;20603;-86
2023/06/16 21:53:27;;;;;;;16.75;6.82;;;;;;;;;;6298709;22;20168;-88
2023/06/16 21:56:32;;;;;;;12.57;6.95;;;;;;;;;;6297438;22;20203;-85
2023/06/16 21:59:39;;;;;;;11.98;6.22;;;;;;;;;;6300191;22;20195;-86
2023/06/16 22:02:46;;;;;;;11.73;6.20;;;;;;;;;;6296325;22;20639;-87
2023/06/16 22:05:52;;;;;;;13.45;6.20;;;;;;;;;;6296110;22;20165;-88
2023/06/16 22:09:02;;;;;;;10.02;6.03;;;;;;;;;;6298629;22;20152;-90
2023/06/16 22:12:08;;;;;;;12.13;6.20;;;;;;;;;;6298548;22;20715;-90
2023/06/16 22:15:13;;;;;;;9.30;5.57;;;;;;;;;;6299650;22;20149;-91
2023/06/16 22:18:23;;;;;;;8.68;5.53;;;;;;;;;;6299835;22;20165;-89
2023/06/16 22:21:28;;;;;;;8.68;5.22;;;;;;;;;;6300182;22;20169;-91
2023/06/16 22:24:33;;;;;;;9.63;5.60;;;;;;;;;;6301665;22;20161;-90
2023/06/16 22:27:39;;;;;;;12.32;5.82;;;;;;;;;;6304980;22;20161;-89
2023/06/16 22:30:46;;;;;;;12.18;5.63;;;;;;;;;;6304726;22;20153;-91
2023/06/16 22:33:52;;;;;;;12.05;5.75;;;;;;;;;;6303019;22;20199;-90
2023/06/16 22:36:58;;;;;;;8.43;5.40;;;;;;;;;;6300175;22;20219;-91
2023/06/16 22:40:05;;;;;;;17.70;6.47;;;;;;;;;;6304154;22;20192;-87
2023/06/16 22:43:09;;;;;;;9.05;5.75;;;;;;;;;;6299327;22;20169;-89
2023/06/16 22:46:15;;;;;;;11.82;5.85;;;;;;;;;;6304509;22;20198;-90
2023/06/16 22:49:23;;;;;;;12.20;6.47;;;;;;;;;;6300462;22;20292;-89
2023/06/16 22:52:28;;;;;;;11.85;6.65;;;;;;;;;;6300642;22;20188;-89
2023/06/16 22:55:33;;;;;;;12.63;6.57;;;;;;;;;;6303659;22;20268;-89
2023/06/16 22:58:39;;;;;;;11.52;6.28;;;;;;;;;;6302323;22;20231;-88
2023/06/16 23:01:44;;;;;;;12.65;5.82;;;;;;;;;;6301979;22;20216;-87
2023/06/16 23:04:52;;;;;;;11.88;6.10;;;;;;;;;;6301890;22;20267;-90
2023/06/16 23:07:58;;;;;;;9.50;6.13;;;;;;;;;;6301924;22;20511;-92
2023/06/16 23:11:03;;;;;;;11.30;6.25;;;;;;;;;;6300782;22;20189;-91
2023/06/16 23:14:09;;;;;;;9.45;6.03;;;;;;;;;;6300715;22;20215;-92
2023/06/16 23:17:14;;;;;;;11.00;6.15;;;;;;;;;;6301295;22;20149;-88
2023/06/16 23:24:09;;;;;;;12.27;6.25;;;;;;;;;;6301657;22;20661;-88
2023/06/16 23:27:16;;;;;;;11.38;6.05;;;;;;;;;;6301494;22;20217;-90
2023/06/16 23:30:22;;;;;;;9.82;5.97;;;;;;;;;;6301419;22;20270;-87
2023/06/16 23:33:28;;;;;;;13.43;6.25;;;;;;;;;;6303439;22;20169;-89
2023/06/16 23:36:33;;;;;;;11.90;6.15;;;;;;;;;;6301729;22;20173;-90
2023/06/16 23:39:40;;;;;;;11.93;5.70;;;;;;;;;;6299608;22;20165;-89
2023/06/16 23:42:45;;;;;;;14.10;6.22;;;;;;;;;;6300350;22;20168;-92
2023/06/16 23:45:53;;;;;;;9.85;5.90;;;;;;;;;;6300232;22;20183;-90
2023/06/16 23:48:58;;;;;;;10.32;6.45;;;;;;;;;;6302320;22;20145;-90
2023/06/16 23:52:03;;;;;;;15.63;6.40;;;;;;;;;;6302568;22;20165;-91
2023/06/16 23:55:09;;;;;;;10.80;6.20;;;;;;;;;;6301511;22;20497;-89
2023/06/16 23:58:18;;;;;;;10.00;6.15;;;;;;;;;;6301819;22;20157;-90
